createdAt,value
2018-11-27T00:07:04.083Z,31.07
2018-11-27T00:17:19.307Z,30.80
2018-11-27T00:27:34.980Z,31.00
2018-11-27T00:37:50.315Z,32.67
2018-11-27T00:48:06.222Z,32.93
2018-11-27T00:58:20.814Z,33.10
2018-11-27T01:08:35.766Z,32.80
2018-11-27T01:18:51.103Z,33.47
2018-11-27T01:29:06.429Z,33.73
2018-11-27T01:39:21.788Z,35.00
2018-11-27T01:49:36.986Z,32.83
2018-11-27T01:59:52.397Z,33.10
2018-11-27T02:10:09.486Z,33.73
2018-11-27T02:20:24.578Z,34.03
2018-11-27T02:30:42.132Z,32.37
2018-11-27T02:40:57.385Z,33.83
2018-11-27T02:51:12.731Z,33.80
2018-11-27T03:01:27.709Z,32.53
2018-11-27T03:11:43.372Z,32.90
2018-11-27T03:21:58.427Z,33.20
2018-11-27T03:32:14.854Z,32.13
2018-11-27T03:42:30.265Z,31.50
2018-11-27T03:52:45.767Z,32.63
2018-11-27T04:03:02.928Z,33.33
2018-11-27T04:13:18.305Z,33.58
2018-11-27T04:23:33.547Z,34.17
2018-11-27T04:33:49.691Z,32.38
2018-11-27T04:44:04.807Z,32.60
2018-11-27T04:54:19.795Z,32.77
2018-11-27T05:04:35.004Z,33.17
2018-11-27T05:14:50.081Z,33.07
2018-11-27T05:25:05.731Z,32.03
2018-11-27T05:35:22.684Z,31.80
2018-11-27T05:45:37.963Z,30.50
2018-11-27T05:55:53.389Z,31.50
2018-11-27T06:06:08.871Z,30.35
2018-11-27T06:16:24.433Z,32.13
2018-11-27T06:26:39.594Z,33.60
2018-11-27T06:36:55.816Z,31.47
2018-11-27T06:47:11.107Z,32.17
2018-11-27T06:57:27.042Z,32.27
2018-11-27T07:07:45.099Z,34.27
2018-11-27T07:18:04.072Z,33.90
2018-11-27T07:28:21.209Z,32.37
2018-11-27T07:38:45.406Z,32.53
2018-11-27T07:49:01.941Z,32.90
2018-11-27T07:59:19.253Z,33.80
2018-11-27T08:09:35.180Z,31.90
2018-11-27T08:19:52.160Z,32.30
2018-11-27T08:30:10.475Z,31.20
2018-11-27T08:40:28.081Z,31.47
2018-11-27T08:50:50.474Z,30.53
2018-11-27T09:01:08.949Z,31.60
2018-11-27T09:11:24.397Z,30.27
2018-11-27T09:21:40.722Z,27.40
2018-11-27T09:31:55.774Z,31.20
2018-11-27T09:52:47.862Z,29.60
2018-11-27T10:03:19.080Z,28.60
2018-11-27T10:13:35.670Z,28.83
2018-11-27T10:23:52.420Z,26.23
2018-11-27T10:34:10.046Z,25.93
2018-11-27T10:44:26.184Z,26.40
2018-11-27T10:54:46.421Z,26.62
2018-11-27T11:05:01.607Z,26.73
2018-11-27T11:15:17.873Z,24.33
2018-11-27T11:25:35.063Z,24.60
2018-11-27T11:35:50.884Z,25.27
2018-11-27T11:46:08.298Z,26.73
2018-11-27T11:56:29.328Z,26.03
2018-11-27T12:06:45.391Z,28.33
2018-11-27T12:17:02.450Z,31.47
2018-11-27T12:27:18.900Z,31.83
2018-11-27T12:37:37.707Z,32.43
2018-11-27T12:47:55.389Z,34.67
2018-11-27T12:58:11.491Z,34.13
2018-11-27T13:19:02.518Z,35.03
2018-11-27T13:29:25.820Z,34.95
2018-11-27T13:39:44.451Z,34.50
2018-11-27T13:50:05.537Z,36.67
2018-11-27T14:00:22.450Z,36.03
2018-11-27T14:10:41.275Z,34.27
2018-11-27T14:21:00.833Z,33.60
2018-11-27T14:31:16.639Z,33.60
2018-11-27T14:41:31.509Z,34.30
2018-11-27T14:51:47.035Z,36.17
2018-11-27T15:02:02.151Z,36.30
2018-11-27T15:12:19.858Z,38.03
2018-11-27T15:22:38.155Z,34.97
2018-11-27T15:32:53.915Z,36.97
2018-11-27T15:43:11.520Z,37.00
2018-11-27T15:53:28.828Z,49.40
2018-11-27T16:03:45.558Z,39.67
2018-11-27T16:14:00.275Z,38.60
2018-11-27T16:24:16.203Z,34.60
2018-11-27T16:34:32.092Z,34.00
2018-11-27T16:44:50.196Z,28.95
2018-11-27T16:55:06.373Z,29.33
2018-11-27T17:05:24.031Z,26.00
2018-11-27T17:15:39.126Z,22.87
2018-11-27T17:25:54.458Z,21.17
2018-11-27T17:36:10.450Z,19.20
2018-11-27T17:46:26.000Z,18.83
2018-11-27T17:56:41.683Z,18.70
2018-11-27T18:06:56.890Z,18.47
2018-11-27T18:17:12.964Z,17.53
2018-11-27T18:27:28.432Z,19.47
2018-11-27T18:37:43.205Z,18.37
2018-11-27T18:47:58.201Z,17.20
2018-11-27T18:58:14.106Z,18.83
2018-11-27T19:08:29.827Z,18.10
2018-11-27T19:18:45.417Z,18.23
2018-11-27T19:29:01.209Z,17.90
2018-11-27T19:39:16.428Z,17.45
2018-11-27T19:49:31.660Z,17.93
2018-11-27T19:59:46.513Z,16.27
2018-11-27T20:10:02.878Z,16.03
2018-11-27T20:20:19.058Z,16.67
2018-11-27T20:30:40.666Z,16.07
2018-11-27T20:40:55.911Z,17.43
2018-11-27T20:51:11.005Z,17.20
2018-11-27T21:01:26.179Z,17.43
2018-11-27T21:11:41.354Z,17.77
2018-11-27T21:21:56.769Z,18.27
2018-11-27T21:32:12.045Z,18.37
2018-11-27T21:42:26.917Z,18.87
2018-11-27T21:52:41.623Z,18.70
2018-11-27T22:02:57.258Z,18.93
2018-11-27T22:13:13.309Z,18.63
2018-11-27T22:23:29.122Z,19.03
2018-11-27T22:33:44.152Z,19.90
2018-11-27T22:44:00.292Z,19.30
2018-11-27T22:54:15.487Z,18.57
2018-11-27T23:04:30.656Z,18.50
2018-11-27T23:14:46.066Z,19.27
2018-11-27T23:25:01.513Z,18.67
2018-11-27T23:35:16.969Z,18.33
2018-11-27T23:45:31.868Z,18.37
2018-11-27T23:55:47.407Z,18.53
